sensor_id;sensor_type;location;lat;lon;timestamp;P1;durP1;ratioP1;P2;durP2;ratioP2
79346;SDS011;68815;48.810;44.482;2023-04-03T00:00:36;7.2;;;3.2;;
79346;SDS011;68815;48.810;44.482;2023-04-03T00:03:38;8.7;;;2.8;;
79346;SDS011;68815;48.810;44.482;2023-04-03T00:06:39;11.3;;;2.9;;
79346;SDS011;68815;48.810;44.482;2023-04-03T00:09:40;9;;;2.6;;
79346;SDS011;68815;48.810;44.482;2023-04-03T00:12:42;9.7;;;3.1;;
79346;SDS011;68815;48.810;44.482;2023-04-03T00:15:43;10.3;;;3.1;;
79346;SDS011;68815;48.810;44.482;2023-04-03T00:18:45;11.6;;;3.2;;
79346;SDS011;68815;48.810;44.482;2023-04-03T00:21:46;13.2;;;3.1;;
79346;SDS011;68815;48.810;44.482;2023-04-03T00:24:47;11.3;;;3.2;;
79346;SDS011;68815;48.810;44.482;2023-04-03T00:27:49;12.4;;;3.5;;
79346;SDS011;68815;48.810;44.482;2023-04-03T00:30:51;10.1;;;3.1;;
79346;SDS011;68815;48.810;44.482;2023-04-03T00:33:52;9.4;;;3.2;;
79346;SDS011;68815;48.810;44.482;2023-04-03T00:36:54;10.9;;;3.1;;
79346;SDS011;68815;48.810;44.482;2023-04-03T00:39:55;8.7;;;2.9;;
79346;SDS011;68815;48.810;44.482;2023-04-03T00:42:58;12.2;;;3;;
79346;SDS011;68815;48.810;44.482;2023-04-03T00:46:00;9.8;;;3.1;;
79346;SDS011;68815;48.810;44.482;2023-04-03T00:49:02;11.2;;;3.3;;
79346;SDS011;68815;48.810;44.482;2023-04-03T00:52:03;7.1;;;3.1;;
79346;SDS011;68815;48.810;44.482;2023-04-03T00:55:07;10.5;;;3.3;;
79346;SDS011;68815;48.810;44.482;2023-04-03T00:58:10;10;;;3.3;;
79346;SDS011;68815;48.810;44.482;2023-04-03T01:01:14;11.1;;;3.2;;
79346;SDS011;68815;48.810;44.482;2023-04-03T01:04:26;11.8;;;3;;
79346;SDS011;68815;48.810;44.482;2023-04-03T01:07:29;10.4;;;3.2;;
79346;SDS011;68815;48.810;44.482;2023-04-03T01:10:31;7.2;;;2.9;;
79346;SDS011;68815;48.810;44.482;2023-04-03T01:13:33;13.1;;;3.7;;
79346;SDS011;68815;48.810;44.482;2023-04-03T01:16:35;13.9;;;3.4;;
79346;SDS011;68815;48.810;44.482;2023-04-03T01:19:36;10.2;;;3.7;;
79346;SDS011;68815;48.810;44.482;2023-04-03T01:22:44;10;;;3.7;;
79346;SDS011;68815;48.810;44.482;2023-04-03T01:25:57;12.6;;;3.6;;
79346;SDS011;68815;48.810;44.482;2023-04-03T01:28:59;11;;;3.6;;
79346;SDS011;68815;48.810;44.482;2023-04-03T01:32:01;12.2;;;3.1;;
79346;SDS011;68815;48.810;44.482;2023-04-03T01:35:04;11.7;;;3.3;;
79346;SDS011;68815;48.810;44.482;2023-04-03T01:38:08;12.1;;;3.4;;
79346;SDS011;68815;48.810;44.482;2023-04-03T01:41:09;11.1;;;3.2;;
79346;SDS011;68815;48.810;44.482;2023-04-03T01:44:11;10;;;2.9;;
79346;SDS011;68815;48.810;44.482;2023-04-03T01:47:13;8.8;;;3.2;;
79346;SDS011;68815;48.810;44.482;2023-04-03T01:50:14;10;;;2.9;;
79346;SDS011;68815;48.810;44.482;2023-04-03T01:53:16;8;;;2.8;;
79346;SDS011;68815;48.810;44.482;2023-04-03T01:56:17;11.6;;;2.7;;
79346;SDS011;68815;48.810;44.482;2023-04-03T01:59:19;11.3;;;3;;
79346;SDS011;68815;48.810;44.482;2023-04-03T02:02:20;13.1;;;3.1;;
79346;SDS011;68815;48.810;44.482;2023-04-03T02:05:22;11.6;;;3;;
79346;SDS011;68815;48.810;44.482;2023-04-03T02:08:23;11;;;3;;
79346;SDS011;68815;48.810;44.482;2023-04-03T02:11:24;9.3;;;2.9;;
79346;SDS011;68815;48.810;44.482;2023-04-03T02:14:26;9.1;;;3.2;;
79346;SDS011;68815;48.810;44.482;2023-04-03T02:17:43;10.8;;;3.2;;
79346;SDS011;68815;48.810;44.482;2023-04-03T02:20:46;9.3;;;3.3;;
79346;SDS011;68815;48.810;44.482;2023-04-03T02:23:47;11.1;;;3.6;;
79346;SDS011;68815;48.810;44.482;2023-04-03T02:26:49;11.3;;;3.6;;
79346;SDS011;68815;48.810;44.482;2023-04-03T02:29:51;12.2;;;3.7;;
79346;SDS011;68815;48.810;44.482;2023-04-03T02:32:52;14;;;4.1;;
79346;SDS011;68815;48.810;44.482;2023-04-03T02:35:54;10.6;;;3.7;;
79346;SDS011;68815;48.810;44.482;2023-04-03T02:38:55;12.1;;;3.8;;
79346;SDS011;68815;48.810;44.482;2023-04-03T02:41:57;11.2;;;3.6;;
79346;SDS011;68815;48.810;44.482;2023-04-03T02:44:58;9.3;;;3.5;;
79346;SDS011;68815;48.810;44.482;2023-04-03T02:48:00;13;;;4;;
79346;SDS011;68815;48.810;44.482;2023-04-03T02:51:01;10.5;;;3.7;;
79346;SDS011;68815;48.810;44.482;2023-04-03T02:54:02;11.2;;;3.4;;
79346;SDS011;68815;48.810;44.482;2023-04-03T02:57:04;10.3;;;3.9;;
79346;SDS011;68815;48.810;44.482;2023-04-03T03:00:06;11.2;;;4;;
79346;SDS011;68815;48.810;44.482;2023-04-03T03:03:08;12.3;;;3.6;;
79346;SDS011;68815;48.810;44.482;2023-04-03T03:06:10;10.4;;;3.9;;
79346;SDS011;68815;48.810;44.482;2023-04-03T03:09:13;11.3;;;3.4;;
79346;SDS011;68815;48.810;44.482;2023-04-03T03:12:15;9.3;;;3.7;;
79346;SDS011;68815;48.810;44.482;2023-04-03T03:15:16;9.8;;;3.5;;
79346;SDS011;68815;48.810;44.482;2023-04-03T03:18:20;10.3;;;3.6;;
79346;SDS011;68815;48.810;44.482;2023-04-03T03:21:22;12.5;;;3.8;;
79346;SDS011;68815;48.810;44.482;2023-04-03T03:24:23;11;;;3.8;;
79346;SDS011;68815;48.810;44.482;2023-04-03T03:27:25;11.9;;;4.1;;
79346;SDS011;68815;48.810;44.482;2023-04-03T03:30:26;10.9;;;3.7;;
79346;SDS011;68815;48.810;44.482;2023-04-03T03:33:28;9.9;;;3.6;;
79346;SDS011;68815;48.810;44.482;2023-04-03T03:36:29;22.5;;;4;;
79346;SDS011;68815;48.810;44.482;2023-04-03T03:39:31;15.2;;;4;;
79346;SDS011;68815;48.810;44.482;2023-04-03T03:42:32;15.5;;;3.5;;
79346;SDS011;68815;48.810;44.482;2023-04-03T03:45:34;13.6;;;3.9;;
79346;SDS011;68815;48.810;44.482;2023-04-03T03:48:35;17.3;;;3.7;;
79346;SDS011;68815;48.810;44.482;2023-04-03T03:51:37;18.3;;;4;;
79346;SDS011;68815;48.810;44.482;2023-04-03T03:54:38;12.3;;;3.5;;
79346;SDS011;68815;48.810;44.482;2023-04-03T03:57:40;13.4;;;3.7;;
79346;SDS011;68815;48.810;44.482;2023-04-03T04:00:41;14.6;;;3.8;;
79346;SDS011;68815;48.810;44.482;2023-04-03T04:03:42;14.9;;;4;;
79346;SDS011;68815;48.810;44.482;2023-04-03T04:06:48;18;;;3.8;;
79346;SDS011;68815;48.810;44.482;2023-04-03T04:09:51;19.9;;;3.8;;
79346;SDS011;68815;48.810;44.482;2023-04-03T04:12:54;16.1;;;4.1;;
79346;SDS011;68815;48.810;44.482;2023-04-03T04:15:57;15.8;;;3.9;;
79346;SDS011;68815;48.810;44.482;2023-04-03T04:19:01;16.4;;;4.4;;
79346;SDS011;68815;48.810;44.482;2023-04-03T04:22:02;18.2;;;3.9;;
79346;SDS011;68815;48.810;44.482;2023-04-03T04:25:04;15.3;;;4.1;;
79346;SDS011;68815;48.810;44.482;2023-04-03T04:28:06;17.2;;;4.7;;
79346;SDS011;68815;48.810;44.482;2023-04-03T04:31:07;18.9;;;4.7;;
79346;SDS011;68815;48.810;44.482;2023-04-03T04:34:09;13.2;;;4.7;;
79346;SDS011;68815;48.810;44.482;2023-04-03T04:37:10;19.6;;;4.6;;
79346;SDS011;68815;48.810;44.482;2023-04-03T04:40:12;19.8;;;4.8;;
79346;SDS011;68815;48.810;44.482;2023-04-03T04:43:13;16.5;;;4.6;;
79346;SDS011;68815;48.810;44.482;2023-04-03T04:46:15;16.1;;;4.8;;
79346;SDS011;68815;48.810;44.482;2023-04-03T04:49:17;29.1;;;5.5;;
79346;SDS011;68815;48.810;44.482;2023-04-03T04:52:18;26.1;;;4.6;;
79346;SDS011;68815;48.810;44.482;2023-04-03T04:55:20;24;;;5;;
79346;SDS011;68815;48.810;44.482;2023-04-03T04:58:21;22.9;;;4.9;;
79346;SDS011;68815;48.810;44.482;2023-04-03T05:01:22;17.4;;;4.6;;
79346;SDS011;68815;48.810;44.482;2023-04-03T05:04:24;21;;;4.6;;
79346;SDS011;68815;48.810;44.482;2023-04-03T05:07:25;23.2;;;5.3;;
79346;SDS011;68815;48.810;44.482;2023-04-03T05:10:27;27.7;;;5.4;;
79346;SDS011;68815;48.810;44.482;2023-04-03T05:13:28;26.6;;;5.1;;
79346;SDS011;68815;48.810;44.482;2023-04-03T05:16:30;21.3;;;5.3;;
79346;SDS011;68815;48.810;44.482;2023-04-03T05:19:31;27.7;;;5;;
79346;SDS011;68815;48.810;44.482;2023-04-03T05:22:33;24.7;;;4.6;;
79346;SDS011;68815;48.810;44.482;2023-04-03T05:25:34;44.1;;;6;;
79346;SDS011;68815;48.810;44.482;2023-04-03T05:28:38;39.3;;;5.5;;
79346;SDS011;68815;48.810;44.482;2023-04-03T05:31:39;33.7;;;5.4;;
79346;SDS011;68815;48.810;44.482;2023-04-03T05:34:41;34.2;;;4.9;;
79346;SDS011;68815;48.810;44.482;2023-04-03T05:37:43;41.5;;;6.6;;
79346;SDS011;68815;48.810;44.482;2023-04-03T05:40:44;26.9;;;6.5;;
79346;SDS011;68815;48.810;44.482;2023-04-03T05:43:46;35.4;;;6.4;;
79346;SDS011;68815;48.810;44.482;2023-04-03T05:46:47;28.2;;;6.2;;
79346;SDS011;68815;48.810;44.482;2023-04-03T05:49:49;27.9;;;7.2;;
79346;SDS011;68815;48.810;44.482;2023-04-03T05:52:50;25.1;;;6;;
79346;SDS011;68815;48.810;44.482;2023-04-03T05:55:55;25.4;;;5.9;;
79346;SDS011;68815;48.810;44.482;2023-04-03T05:58:57;26.1;;;6.7;;
79346;SDS011;68815;48.810;44.482;2023-04-03T06:01:58;30.3;;;7.1;;
79346;SDS011;68815;48.810;44.482;2023-04-03T06:04:59;32.2;;;6.7;;
79346;SDS011;68815;48.810;44.482;2023-04-03T06:08:01;32.3;;;6.6;;
79346;SDS011;68815;48.810;44.482;2023-04-03T06:14:33;28.9;;;6.5;;
79346;SDS011;68815;48.810;44.482;2023-04-03T06:17:35;31.7;;;6;;
79346;SDS011;68815;48.810;44.482;2023-04-03T06:20:37;30.7;;;6.5;;
79346;SDS011;68815;48.810;44.482;2023-04-03T06:23:38;41.3;;;7.3;;
79346;SDS011;68815;48.810;44.482;2023-04-03T06:26:40;31.9;;;6.1;;
79346;SDS011;68815;48.810;44.482;2023-04-03T06:33:12;43.8;;;6;;
79346;SDS011;68815;48.810;44.482;2023-04-03T06:36:14;41.6;;;5.8;;
79346;SDS011;68815;48.810;44.482;2023-04-03T06:39:17;38.8;;;5.8;;
79346;SDS011;68815;48.810;44.482;2023-04-03T06:42:21;42.5;;;5.6;;
79346;SDS011;68815;48.810;44.482;2023-04-03T06:45:22;48.2;;;6.1;;
79346;SDS011;68815;48.810;44.482;2023-04-03T06:48:23;39.9;;;5.8;;
79346;SDS011;68815;48.810;44.482;2023-04-03T06:51:25;47.9;;;6.4;;
79346;SDS011;68815;48.810;44.482;2023-04-03T06:54:28;40.3;;;5.7;;
79346;SDS011;68815;48.810;44.482;2023-04-03T06:57:29;44.3;;;5.1;;
79346;SDS011;68815;48.810;44.482;2023-04-03T07:00:31;39;;;5.8;;
79346;SDS011;68815;48.810;44.482;2023-04-03T07:03:32;45.9;;;5.7;;
79346;SDS011;68815;48.810;44.482;2023-04-03T07:06:33;44.1;;;6.1;;
79346;SDS011;68815;48.810;44.482;2023-04-03T07:09:35;37.6;;;5.4;;
79346;SDS011;68815;48.810;44.482;2023-04-03T07:12:36;40.5;;;6.1;;
79346;SDS011;68815;48.810;44.482;2023-04-03T07:15:38;42.2;;;6.3;;
79346;SDS011;68815;48.810;44.482;2023-04-03T07:18:39;47.2;;;5.5;;
79346;SDS011;68815;48.810;44.482;2023-04-03T07:21:41;53.2;;;6.4;;
79346;SDS011;68815;48.810;44.482;2023-04-03T07:24:42;46.5;;;5.6;;
79346;SDS011;68815;48.810;44.482;2023-04-03T07:27:43;43.4;;;5.1;;
79346;SDS011;68815;48.810;44.482;2023-04-03T07:30:45;45.2;;;5;;
79346;SDS011;68815;48.810;44.482;2023-04-03T07:33:48;42.5;;;5.5;;
79346;SDS011;68815;48.810;44.482;2023-04-03T07:36:50;55.9;;;6.5;;
79346;SDS011;68815;48.810;44.482;2023-04-03T07:39:51;51.7;;;6.3;;
79346;SDS011;68815;48.810;44.482;2023-04-03T07:42:53;48.4;;;6.1;;
79346;SDS011;68815;48.810;44.482;2023-04-03T07:45:54;49.6;;;6.2;;
79346;SDS011;68815;48.810;44.482;2023-04-03T07:49:01;49.9;;;5.9;;
79346;SDS011;68815;48.810;44.482;2023-04-03T07:52:03;50.3;;;5.9;;
79346;SDS011;68815;48.810;44.482;2023-04-03T07:55:04;54.3;;;5.6;;
79346;SDS011;68815;48.810;44.482;2023-04-03T07:58:06;50.1;;;5.1;;
79346;SDS011;68815;48.810;44.482;2023-04-03T08:01:08;52.1;;;5.7;;
79346;SDS011;68815;48.810;44.482;2023-04-03T08:04:09;48.1;;;5.1;;
79346;SDS011;68815;48.810;44.482;2023-04-03T08:07:10;48.3;;;5.9;;
79346;SDS011;68815;48.810;44.482;2023-04-03T08:10:12;52.1;;;5.6;;
79346;SDS011;68815;48.810;44.482;2023-04-03T08:13:14;50.9;;;6.1;;
79346;SDS011;68815;48.810;44.482;2023-04-03T08:16:16;44.6;;;6;;
79346;SDS011;68815;48.810;44.482;2023-04-03T08:19:21;51.1;;;5.7;;
79346;SDS011;68815;48.810;44.482;2023-04-03T08:22:22;47.7;;;5.3;;
79346;SDS011;68815;48.810;44.482;2023-04-03T08:25:23;42.5;;;5.4;;
79346;SDS011;68815;48.810;44.482;2023-04-03T08:28:25;53.5;;;6.2;;
79346;SDS011;68815;48.810;44.482;2023-04-03T08:31:26;40;;;5.3;;
79346;SDS011;68815;48.810;44.482;2023-04-03T08:34:28;45.6;;;5.9;;
79346;SDS011;68815;48.810;44.482;2023-04-03T08:37:29;36.2;;;5.4;;
79346;SDS011;68815;48.810;44.482;2023-04-03T08:40:31;35;;;4.5;;
79346;SDS011;68815;48.810;44.482;2023-04-03T08:43:35;37.1;;;4.4;;
79346;SDS011;68815;48.810;44.482;2023-04-03T08:46:47;39.6;;;5.8;;
79346;SDS011;68815;48.810;44.482;2023-04-03T08:49:58;42.2;;;5.6;;
79346;SDS011;68815;48.810;44.482;2023-04-03T08:53:01;37.7;;;4.5;;
79346;SDS011;68815;48.810;44.482;2023-04-03T08:56:05;34.7;;;5.7;;
79346;SDS011;68815;48.810;44.482;2023-04-03T08:59:10;44.7;;;6;;
79346;SDS011;68815;48.810;44.482;2023-04-03T09:02:21;37.1;;;6;;
79346;SDS011;68815;48.810;44.482;2023-04-03T09:05:29;32.2;;;5.4;;
79346;SDS011;68815;48.810;44.482;2023-04-03T09:08:38;31;;;5.2;;
79346;SDS011;68815;48.810;44.482;2023-04-03T09:11:47;34.8;;;4.8;;
79346;SDS011;68815;48.810;44.482;2023-04-03T09:14:59;42.6;;;5.7;;
79346;SDS011;68815;48.810;44.482;2023-04-03T09:18:08;31.6;;;5.4;;
79346;SDS011;68815;48.810;44.482;2023-04-03T09:21:16;30.8;;;3.9;;
79346;SDS011;68815;48.810;44.482;2023-04-03T09:24:28;37.6;;;5;;
79346;SDS011;68815;48.810;44.482;2023-04-03T09:27:32;39.9;;;4.9;;
79346;SDS011;68815;48.810;44.482;2023-04-03T09:30:34;35.8;;;5.6;;
79346;SDS011;68815;48.810;44.482;2023-04-03T09:33:36;36.2;;;4.5;;
79346;SDS011;68815;48.810;44.482;2023-04-03T09:36:38;33.7;;;4.9;;
79346;SDS011;68815;48.810;44.482;2023-04-03T09:39:49;38.9;;;4.3;;
79346;SDS011;68815;48.810;44.482;2023-04-03T09:42:52;43.4;;;4.5;;
79346;SDS011;68815;48.810;44.482;2023-04-03T09:45:56;31.9;;;4.9;;
79346;SDS011;68815;48.810;44.482;2023-04-03T09:49:13;30.7;;;4.9;;
79346;SDS011;68815;48.810;44.482;2023-04-03T09:52:18;42;;;5.3;;
79346;SDS011;68815;48.810;44.482;2023-04-03T09:55:21;37.2;;;5.5;;
79346;SDS011;68815;48.810;44.482;2023-04-03T09:58:24;31.6;;;4.7;;
79346;SDS011;68815;48.810;44.482;2023-04-03T10:01:28;35.3;;;4.4;;
79346;SDS011;68815;48.810;44.482;2023-04-03T10:04:40;40.9;;;5;;
79346;SDS011;68815;48.810;44.482;2023-04-03T10:07:42;33.1;;;4.2;;
79346;SDS011;68815;48.810;44.482;2023-04-03T10:10:45;36.1;;;4.6;;
79346;SDS011;68815;48.810;44.482;2023-04-03T10:13:52;39.4;;;5.5;;
79346;SDS011;68815;48.810;44.482;2023-04-03T10:16:57;38.9;;;4.5;;
79346;SDS011;68815;48.810;44.482;2023-04-03T10:20:08;30.3;;;4.7;;
79346;SDS011;68815;48.810;44.482;2023-04-03T10:23:21;37.7;;;5;;
79346;SDS011;68815;48.810;44.482;2023-04-03T10:26:28;31.6;;;4.2;;
79346;SDS011;68815;48.810;44.482;2023-04-03T10:29:39;40.1;;;4.4;;
79346;SDS011;68815;48.810;44.482;2023-04-03T10:32:46;33.7;;;4.9;;
79346;SDS011;68815;48.810;44.482;2023-04-03T10:35:58;37;;;4.9;;
79346;SDS011;68815;48.810;44.482;2023-04-03T10:39:10;42.8;;;5.3;;
79346;SDS011;68815;48.810;44.482;2023-04-03T10:42:21;31.4;;;3.9;;
79346;SDS011;68815;48.810;44.482;2023-04-03T10:45:30;37.3;;;4.8;;
79346;SDS011;68815;48.810;44.482;2023-04-03T10:48:49;33.5;;;4.5;;
79346;SDS011;68815;48.810;44.482;2023-04-03T10:51:56;30.5;;;5.3;;
79346;SDS011;68815;48.810;44.482;2023-04-03T10:55:06;35.1;;;4.1;;
79346;SDS011;68815;48.810;44.482;2023-04-03T10:58:25;39.5;;;4.4;;
79346;SDS011;68815;48.810;44.482;2023-04-03T11:01:32;35.5;;;4.2;;
79346;SDS011;68815;48.810;44.482;2023-04-03T11:04:37;28.3;;;3.8;;
79346;SDS011;68815;48.810;44.482;2023-04-03T11:07:42;26.7;;;3.7;;
79346;SDS011;68815;48.810;44.482;2023-04-03T11:10:49;28.4;;;3.6;;
79346;SDS011;68815;48.810;44.482;2023-04-03T11:13:53;34.7;;;4.4;;
79346;SDS011;68815;48.810;44.482;2023-04-03T11:17:11;31.5;;;3.7;;
79346;SDS011;68815;48.810;44.482;2023-04-03T11:20:21;37.4;;;3.8;;
79346;SDS011;68815;48.810;44.482;2023-04-03T11:23:28;28;;;3.3;;
79346;SDS011;68815;48.810;44.482;2023-04-03T11:26:36;27.2;;;3.1;;
79346;SDS011;68815;48.810;44.482;2023-04-03T11:29:42;34.7;;;3.3;;
79346;SDS011;68815;48.810;44.482;2023-04-03T11:32:52;27.7;;;3.6;;
79346;SDS011;68815;48.810;44.482;2023-04-03T11:36:03;28;;;3.4;;
79346;SDS011;68815;48.810;44.482;2023-04-03T11:39:14;31.3;;;3.7;;
79346;SDS011;68815;48.810;44.482;2023-04-03T11:42:25;30.6;;;4;;
79346;SDS011;68815;48.810;44.482;2023-04-03T11:45:34;26.4;;;3.7;;
79346;SDS011;68815;48.810;44.482;2023-04-03T11:51:54;37.6;;;4.7;;
79346;SDS011;68815;48.810;44.482;2023-04-03T11:54:55;38.7;;;4.6;;
79346;SDS011;68815;48.810;44.482;2023-04-03T11:58:10;33.7;;;4;;
79346;SDS011;68815;48.810;44.482;2023-04-03T12:01:19;44.1;;;4.9;;
79346;SDS011;68815;48.810;44.482;2023-04-03T12:04:43;45.7;;;4.9;;
79346;SDS011;68815;48.810;44.482;2023-04-03T12:08:21;30.6;;;3.9;;
79346;SDS011;68815;48.810;44.482;2023-04-03T12:11:29;34;;;4.3;;
79346;SDS011;68815;48.810;44.482;2023-04-03T12:14:31;39.7;;;4.5;;
79346;SDS011;68815;48.810;44.482;2023-04-03T12:17:33;41.4;;;4.5;;
79346;SDS011;68815;48.810;44.482;2023-04-03T12:23:59;41.8;;;5.1;;
79346;SDS011;68815;48.810;44.482;2023-04-03T12:27:04;33.3;;;4.6;;
79346;SDS011;68815;48.810;44.482;2023-04-03T12:30:13;34.1;;;5.5;;
79346;SDS011;68815;48.810;44.482;2023-04-03T12:33:19;34.1;;;5.1;;
79346;SDS011;68815;48.810;44.482;2023-04-03T12:36:38;37.3;;;3.9;;
79346;SDS011;68815;48.810;44.482;2023-04-03T12:39:49;42.2;;;5.4;;
79346;SDS011;68815;48.810;44.482;2023-04-03T12:43:02;36.2;;;4.3;;
79346;SDS011;68815;48.810;44.482;2023-04-03T12:46:14;40.8;;;4.6;;
79346;SDS011;68815;48.810;44.482;2023-04-03T12:49:24;28.3;;;3.7;;
79346;SDS011;68815;48.810;44.482;2023-04-03T12:52:36;33.5;;;3.7;;
79346;SDS011;68815;48.810;44.482;2023-04-03T12:55:42;35.9;;;4.3;;
79346;SDS011;68815;48.810;44.482;2023-04-03T12:58:44;42.1;;;8.6;;
79346;SDS011;68815;48.810;44.482;2023-04-03T13:01:53;32.8;;;4;;
79346;SDS011;68815;48.810;44.482;2023-04-03T13:04:56;31.2;;;3.7;;
79346;SDS011;68815;48.810;44.482;2023-04-03T13:07:59;28.9;;;3.8;;
79346;SDS011;68815;48.810;44.482;2023-04-03T13:11:04;33.9;;;4.1;;
79346;SDS011;68815;48.810;44.482;2023-04-03T13:14:14;39;;;4.5;;
79346;SDS011;68815;48.810;44.482;2023-04-03T13:17:18;34.2;;;4;;
79346;SDS011;68815;48.810;44.482;2023-04-03T13:20:22;39.9;;;4.1;;
79346;SDS011;68815;48.810;44.482;2023-04-03T13:23:26;36.2;;;4.2;;
79346;SDS011;68815;48.810;44.482;2023-04-03T13:26:29;34.7;;;4.2;;
79346;SDS011;68815;48.810;44.482;2023-04-03T13:29:33;36.3;;;5.3;;
79346;SDS011;68815;48.810;44.482;2023-04-03T13:32:37;46.3;;;6;;
79346;SDS011;68815;48.810;44.482;2023-04-03T13:35:39;40.7;;;6.6;;
79346;SDS011;68815;48.810;44.482;2023-04-03T13:38:42;36.5;;;4.7;;
79346;SDS011;68815;48.810;44.482;2023-04-03T13:41:45;39.1;;;4.5;;
79346;SDS011;68815;48.810;44.482;2023-04-03T13:44:48;37.4;;;4.1;;
79346;SDS011;68815;48.810;44.482;2023-04-03T13:47:51;38.1;;;4.6;;
79346;SDS011;68815;48.810;44.482;2023-04-03T13:50:55;36.4;;;4.6;;
79346;SDS011;68815;48.810;44.482;2023-04-03T13:54:00;46.7;;;4.9;;
79346;SDS011;68815;48.810;44.482;2023-04-03T13:57:15;26.6;;;3.7;;
79346;SDS011;68815;48.810;44.482;2023-04-03T14:00:22;32.3;;;4.1;;
79346;SDS011;68815;48.810;44.482;2023-04-03T14:03:31;38.7;;;4.4;;
79346;SDS011;68815;48.810;44.482;2023-04-03T14:06:38;31.2;;;3.6;;
79346;SDS011;68815;48.810;44.482;2023-04-03T14:09:40;38.1;;;5.1;;
79346;SDS011;68815;48.810;44.482;2023-04-03T14:12:41;32.4;;;4;;
79346;SDS011;68815;48.810;44.482;2023-04-03T14:15:43;30.9;;;4.2;;
79346;SDS011;68815;48.810;44.482;2023-04-03T14:18:47;28.9;;;4;;
79346;SDS011;68815;48.810;44.482;2023-04-03T14:21:50;33.1;;;5.7;;
79346;SDS011;68815;48.810;44.482;2023-04-03T14:24:52;37.1;;;5.2;;
79346;SDS011;68815;48.810;44.482;2023-04-03T14:27:54;28.8;;;3.7;;
79346;SDS011;68815;48.810;44.482;2023-04-03T14:30:55;37.7;;;4.6;;
79346;SDS011;68815;48.810;44.482;2023-04-03T14:33:57;37.4;;;4.2;;
79346;SDS011;68815;48.810;44.482;2023-04-03T14:36:58;27.8;;;4;;
79346;SDS011;68815;48.810;44.482;2023-04-03T14:40:00;34.1;;;4.6;;
79346;SDS011;68815;48.810;44.482;2023-04-03T14:43:05;23.5;;;3.5;;
79346;SDS011;68815;48.810;44.482;2023-04-03T14:46:10;31.3;;;3.6;;
79346;SDS011;68815;48.810;44.482;2023-04-03T14:49:16;27.2;;;4.1;;
79346;SDS011;68815;48.810;44.482;2023-04-03T14:52:23;28.1;;;4.1;;
79346;SDS011;68815;48.810;44.482;2023-04-03T14:55:26;31.1;;;4.1;;
79346;SDS011;68815;48.810;44.482;2023-04-03T14:58:28;40.1;;;6.3;;
79346;SDS011;68815;48.810;44.482;2023-04-03T15:01:30;46.6;;;7.7;;
79346;SDS011;68815;48.810;44.482;2023-04-03T15:04:31;43;;;8.1;;
79346;SDS011;68815;48.810;44.482;2023-04-03T15:07:33;48.9;;;9.7;;
79346;SDS011;68815;48.810;44.482;2023-04-03T15:10:37;39.3;;;6.6;;
79346;SDS011;68815;48.810;44.482;2023-04-03T15:13:39;32.7;;;6.7;;
79346;SDS011;68815;48.810;44.482;2023-04-03T15:16:41;31.2;;;5.3;;
79346;SDS011;68815;48.810;44.482;2023-04-03T15:19:43;30.4;;;4.7;;
79346;SDS011;68815;48.810;44.482;2023-04-03T15:22:45;26.9;;;4;;
79346;SDS011;68815;48.810;44.482;2023-04-03T15:25:47;30.3;;;4.4;;
79346;SDS011;68815;48.810;44.482;2023-04-03T15:28:50;26.4;;;3.6;;
79346;SDS011;68815;48.810;44.482;2023-04-03T15:31:51;30.9;;;4.3;;
79346;SDS011;68815;48.810;44.482;2023-04-03T15:34:53;35.1;;;4.8;;
79346;SDS011;68815;48.810;44.482;2023-04-03T15:37:55;26.3;;;5.1;;
79346;SDS011;68815;48.810;44.482;2023-04-03T15:40:56;24.3;;;5.2;;
79346;SDS011;68815;48.810;44.482;2023-04-03T15:43:58;25.1;;;5;;
79346;SDS011;68815;48.810;44.482;2023-04-03T15:46:59;19.8;;;4.4;;
79346;SDS011;68815;48.810;44.482;2023-04-03T15:50:01;10.7;;;3;;
79346;SDS011;68815;48.810;44.482;2023-04-03T15:53:05;7.6;;;2.2;;
79346;SDS011;68815;48.810;44.482;2023-04-03T15:56:07;8;;;2.1;;
79346;SDS011;68815;48.810;44.482;2023-04-03T15:59:08;8;;;2.3;;
79346;SDS011;68815;48.810;44.482;2023-04-03T16:02:10;8.4;;;2.2;;
79346;SDS011;68815;48.810;44.482;2023-04-03T16:05:14;8;;;2.4;;
79346;SDS011;68815;48.810;44.482;2023-04-03T16:08:16;7.6;;;2.1;;
79346;SDS011;68815;48.810;44.482;2023-04-03T16:11:18;12.2;;;4.5;;
79346;SDS011;68815;48.810;44.482;2023-04-03T16:14:19;12.6;;;6.5;;
79346;SDS011;68815;48.810;44.482;2023-04-03T16:17:20;7.9;;;3.3;;
79346;SDS011;68815;48.810;44.482;2023-04-03T16:20:22;11.3;;;4.7;;
79346;SDS011;68815;48.810;44.482;2023-04-03T16:23:23;6.8;;;3.1;;
79346;SDS011;68815;48.810;44.482;2023-04-03T16:26:25;12.1;;;3.1;;
79346;SDS011;68815;48.810;44.482;2023-04-03T16:29:26;7.2;;;3.4;;
79346;SDS011;68815;48.810;44.482;2023-04-03T16:32:29;8.7;;;3.2;;
79346;SDS011;68815;48.810;44.482;2023-04-03T16:35:32;8.4;;;3;;
79346;SDS011;68815;48.810;44.482;2023-04-03T16:38:33;12.4;;;5.4;;
79346;SDS011;68815;48.810;44.482;2023-04-03T16:41:35;9.9;;;4.6;;
79346;SDS011;68815;48.810;44.482;2023-04-03T16:44:36;10.8;;;4.8;;
79346;SDS011;68815;48.810;44.482;2023-04-03T16:47:38;15.8;;;6.2;;
79346;SDS011;68815;48.810;44.482;2023-04-03T16:50:39;16;;;6.5;;
79346;SDS011;68815;48.810;44.482;2023-04-03T16:53:42;16.4;;;5.8;;
79346;SDS011;68815;48.810;44.482;2023-04-03T16:56:43;10.1;;;4.6;;
79346;SDS011;68815;48.810;44.482;2023-04-03T16:59:44;12.2;;;4;;
79346;SDS011;68815;48.810;44.482;2023-04-03T17:02:46;9.7;;;3.8;;
79346;SDS011;68815;48.810;44.482;2023-04-03T17:05:47;8;;;3.6;;
79346;SDS011;68815;48.810;44.482;2023-04-03T17:08:50;10.3;;;3.1;;
79346;SDS011;68815;48.810;44.482;2023-04-03T17:11:52;8.6;;;3.2;;
79346;SDS011;68815;48.810;44.482;2023-04-03T17:14:53;7.1;;;3;;
79346;SDS011;68815;48.810;44.482;2023-04-03T17:17:55;9.4;;;3.6;;
79346;SDS011;68815;48.810;44.482;2023-04-03T17:20:56;8.2;;;3;;
79346;SDS011;68815;48.810;44.482;2023-04-03T17:23:58;8.5;;;3;;
79346;SDS011;68815;48.810;44.482;2023-04-03T17:27:03;8.2;;;3.2;;
79346;SDS011;68815;48.810;44.482;2023-04-03T17:30:06;7;;;3;;
79346;SDS011;68815;48.810;44.482;2023-04-03T17:33:08;7.9;;;3.2;;
79346;SDS011;68815;48.810;44.482;2023-04-03T17:36:09;5.9;;;3.1;;
79346;SDS011;68815;48.810;44.482;2023-04-03T17:39:11;7.1;;;3.5;;
79346;SDS011;68815;48.810;44.482;2023-04-03T17:42:13;8.9;;;3.7;;
79346;SDS011;68815;48.810;44.482;2023-04-03T17:45:14;8.6;;;4;;
79346;SDS011;68815;48.810;44.482;2023-04-03T17:48:16;15.5;;;5.5;;
79346;SDS011;68815;48.810;44.482;2023-04-03T17:51:19;20.8;;;9.3;;
79346;SDS011;68815;48.810;44.482;2023-04-03T17:54:22;19.3;;;10.5;;
79346;SDS011;68815;48.810;44.482;2023-04-03T17:57:24;17.6;;;10.1;;
79346;SDS011;68815;48.810;44.482;2023-04-03T18:00:25;17.9;;;8.8;;
79346;SDS011;68815;48.810;44.482;2023-04-03T18:03:27;14.9;;;7.9;;
79346;SDS011;68815;48.810;44.482;2023-04-03T18:06:29;13;;;7;;
79346;SDS011;68815;48.810;44.482;2023-04-03T18:09:33;16.2;;;7.4;;
79346;SDS011;68815;48.810;44.482;2023-04-03T18:12:37;14.6;;;7.3;;
79346;SDS011;68815;48.810;44.482;2023-04-03T18:15:38;18.3;;;8.5;;
79346;SDS011;68815;48.810;44.482;2023-04-03T18:18:40;18.3;;;9.2;;
79346;SDS011;68815;48.810;44.482;2023-04-03T18:21:41;15.5;;;8.8;;
79346;SDS011;68815;48.810;44.482;2023-04-03T18:24:42;16.5;;;9.1;;
79346;SDS011;68815;48.810;44.482;2023-04-03T18:27:44;19.7;;;9.1;;
79346;SDS011;68815;48.810;44.482;2023-04-03T18:30:47;14.8;;;8.7;;
79346;SDS011;68815;48.810;44.482;2023-04-03T18:33:49;17.4;;;9.2;;
79346;SDS011;68815;48.810;44.482;2023-04-03T18:36:50;19.5;;;10.1;;
79346;SDS011;68815;48.810;44.482;2023-04-03T18:39:52;16.6;;;9.8;;
79346;SDS011;68815;48.810;44.482;2023-04-03T18:42:53;17.3;;;9.6;;
79346;SDS011;68815;48.810;44.482;2023-04-03T18:45:54;19.8;;;9.3;;
79346;SDS011;68815;48.810;44.482;2023-04-03T18:48:56;18.1;;;9.7;;